createdAt,value
2023-05-03T00:00:09.729Z,8.9480
2023-05-03T00:01:11.886Z,8.9394
2023-05-03T00:02:14.067Z,8.8967
2023-05-03T00:03:16.247Z,8.9116
2023-05-03T00:04:18.470Z,8.9460
2023-05-03T00:05:20.705Z,8.9135
2023-05-03T00:06:22.868Z,8.8737
2023-05-03T00:07:25.261Z,8.8621
2023-05-03T00:08:27.431Z,8.8941
2023-05-03T00:09:29.561Z,8.8522
2023-05-03T00:10:31.891Z,8.8173
2023-05-03T00:11:34.052Z,8.8230
2023-05-03T00:12:36.169Z,8.7891
2023-05-03T00:13:38.332Z,8.7705
2023-05-03T00:14:40.493Z,8.7434
2023-05-03T00:15:42.619Z,8.7228
2023-05-03T00:16:44.821Z,8.7212
2023-05-03T00:17:47.236Z,8.7374
2023-05-03T00:18:49.561Z,8.7145
2023-05-03T00:19:51.673Z,8.7162
2023-05-03T00:20:53.802Z,8.7264
2023-05-03T00:21:55.933Z,8.7331
2023-05-03T00:22:58.094Z,8.6881
2023-05-03T00:24:00.258Z,8.7101
2023-05-03T00:25:00.758Z,8.7147
2023-05-03T00:26:02.879Z,8.7236
2023-05-03T00:27:05.017Z,8.7044
2023-05-03T00:28:07.188Z,8.6799
2023-05-03T00:29:09.358Z,8.6802
2023-05-03T00:30:11.519Z,8.6427
2023-05-03T00:31:13.693Z,8.6450
2023-05-03T00:32:15.883Z,8.6378
2023-05-03T00:33:18.064Z,8.6233
2023-05-03T00:34:20.242Z,8.5974
2023-05-03T00:35:22.389Z,8.5682
2023-05-03T00:36:24.527Z,8.5789
2023-05-03T00:37:26.682Z,8.5242
2023-05-03T00:38:28.847Z,8.4887
2023-05-03T00:39:31.025Z,8.4612
2023-05-03T00:40:33.184Z,8.4905
2023-05-03T00:41:35.355Z,8.4966
2023-05-03T00:42:37.534Z,8.4656
2023-05-03T00:43:39.679Z,8.4619
2023-05-03T00:44:41.826Z,8.4430
2023-05-03T00:45:44.005Z,8.4512
2023-05-03T00:46:46.204Z,8.4221
2023-05-03T00:47:48.418Z,8.3929
2023-05-03T00:48:50.616Z,8.3887
2023-05-03T00:49:52.826Z,8.3847
2023-05-03T00:50:54.965Z,8.4000
2023-05-03T00:51:57.133Z,8.3623
2023-05-03T00:52:59.296Z,8.3763
2023-05-03T00:54:01.476Z,8.3656
2023-05-03T00:55:03.870Z,8.3334
2023-05-03T00:56:06.042Z,8.3178
2023-05-03T00:57:08.216Z,8.3159
2023-05-03T00:58:10.403Z,8.3167
2023-05-03T00:59:12.572Z,8.3109
2023-05-03T01:00:14.785Z,8.3244
2023-05-03T01:01:16.955Z,8.3598
2023-05-03T01:02:19.099Z,8.3646
2023-05-03T01:03:21.306Z,8.3970
2023-05-03T01:04:23.547Z,8.4014
2023-05-03T01:05:25.697Z,8.3972
2023-05-03T01:06:27.925Z,8.3855
2023-05-03T01:07:30.147Z,8.4165
2023-05-03T01:08:32.368Z,8.4198
2023-05-03T01:09:34.496Z,8.3981
2023-05-03T01:10:36.674Z,8.3913
2023-05-03T01:11:38.830Z,8.3869
2023-05-03T01:12:40.976Z,8.3956
2023-05-03T01:13:43.129Z,8.4006
2023-05-03T01:14:45.291Z,8.3954
2023-05-03T01:15:47.488Z,8.3774
2023-05-03T01:16:49.634Z,8.3709
2023-05-03T01:17:51.826Z,8.3623
2023-05-03T01:18:53.965Z,8.3477
2023-05-03T01:19:56.641Z,8.3213
2023-05-03T01:20:58.804Z,8.3343
2023-05-03T01:22:00.938Z,8.3478
2023-05-03T01:23:03.049Z,8.3301
2023-05-03T01:24:05.203Z,8.3125
2023-05-03T01:25:07.327Z,8.3015
2023-05-03T01:26:09.468Z,8.2795
2023-05-03T01:27:11.631Z,8.2710
2023-05-03T01:28:13.803Z,8.2674
2023-05-03T01:29:15.984Z,8.2705
2023-05-03T01:30:18.132Z,8.2853
2023-05-03T01:31:20.367Z,8.2749
2023-05-03T01:32:22.598Z,8.2530
2023-05-03T01:33:24.817Z,8.2683
2023-05-03T01:34:27.005Z,8.2350
2023-05-03T01:35:29.263Z,8.2333
2023-05-03T01:36:31.417Z,8.2153
2023-05-03T01:37:33.620Z,8.1897
2023-05-03T01:38:35.790Z,8.1677
2023-05-03T01:39:37.963Z,8.1549
2023-05-03T01:40:40.151Z,8.1534
2023-05-03T01:41:42.336Z,8.1405
2023-05-03T01:42:44.540Z,8.1285
2023-05-03T01:43:46.731Z,8.1290
2023-05-03T01:44:48.887Z,8.1226
2023-05-03T01:45:51.085Z,8.1023
2023-05-03T01:46:53.270Z,8.0858
2023-05-03T01:47:55.485Z,8.0985
2023-05-03T01:48:57.663Z,8.0817
2023-05-03T01:49:59.991Z,8.0682
2023-05-03T01:51:02.275Z,8.0657
2023-05-03T01:52:04.446Z,8.0588
2023-05-03T01:53:06.631Z,8.0538
2023-05-03T01:54:08.817Z,8.0429
2023-05-03T01:55:11.015Z,8.0356
2023-05-03T01:56:13.161Z,8.0629
2023-05-03T01:57:15.362Z,8.0963
2023-05-03T01:58:17.532Z,8.0843
2023-05-03T01:59:19.733Z,8.0745
2023-05-03T02:00:21.920Z,8.0971
2023-05-03T02:01:24.142Z,8.0949
2023-05-03T02:02:26.339Z,8.1106
2023-05-03T02:03:28.510Z,8.1100
2023-05-03T02:04:31.304Z,8.1177
2023-05-03T02:05:33.263Z,8.1105
2023-05-03T02:06:35.509Z,8.0751
2023-05-03T02:07:37.695Z,8.0846
2023-05-03T02:08:39.873Z,8.0836
2023-05-03T02:09:42.038Z,8.0747
2023-05-03T02:10:44.245Z,8.0671
2023-05-03T02:11:46.454Z,8.0403
2023-05-03T02:12:48.633Z,8.0403
2023-05-03T02:13:50.834Z,8.0745
2023-05-03T02:14:53.028Z,8.0810
2023-05-03T02:15:55.249Z,8.0805
2023-05-03T02:16:57.462Z,8.0464
2023-05-03T02:17:59.894Z,8.0447
2023-05-03T02:19:02.088Z,8.0159
2023-05-03T02:20:04.616Z,8.0019
2023-05-03T02:21:07.000Z,8.0316
2023-05-03T02:22:09.223Z,8.0425
2023-05-03T02:23:11.413Z,8.0483
2023-05-03T02:24:13.598Z,8.0252
2023-05-03T02:25:15.824Z,8.0239
2023-05-03T02:26:18.046Z,8.0170
2023-05-03T02:27:20.237Z,7.9994
2023-05-03T02:28:22.445Z,7.9598
2023-05-03T02:29:24.636Z,7.9327
2023-05-03T02:30:26.813Z,7.8959
2023-05-03T02:31:29.071Z,7.8970
2023-05-03T02:32:31.387Z,7.8692
2023-05-03T02:33:33.616Z,7.8172
2023-05-03T02:34:35.775Z,7.7999
2023-05-03T02:35:37.971Z,7.7571
2023-05-03T02:36:40.157Z,7.7428
2023-05-03T02:37:42.355Z,7.7501
2023-05-03T02:38:44.522Z,7.7429
2023-05-03T02:39:46.706Z,7.7398
2023-05-03T02:40:48.907Z,7.7256
2023-05-03T02:41:51.076Z,7.7239
2023-05-03T02:42:53.280Z,7.7315
2023-05-03T02:43:55.499Z,7.7049
2023-05-03T02:44:57.698Z,7.7093
2023-05-03T02:45:59.923Z,7.7151
2023-05-03T02:47:02.160Z,7.7291
2023-05-03T02:48:04.349Z,7.6960
2023-05-03T02:49:06.550Z,7.6578
2023-05-03T02:50:08.961Z,7.6556
2023-05-03T02:51:11.120Z,7.6347
2023-05-03T02:52:13.318Z,7.6259
2023-05-03T02:53:15.518Z,7.6151
2023-05-03T02:54:17.735Z,7.5951
2023-05-03T02:55:19.926Z,7.5756
2023-05-03T02:56:22.136Z,7.5821
2023-05-03T02:57:24.353Z,7.5725
2023-05-03T02:58:26.556Z,7.5558
2023-05-03T02:59:28.727Z,7.5277
2023-05-03T03:00:30.925Z,7.5326
2023-05-03T03:01:33.131Z,7.5221
2023-05-03T03:02:35.372Z,7.5068
2023-05-03T03:03:37.617Z,7.4809
2023-05-03T03:04:39.832Z,7.4897
2023-05-03T03:05:42.029Z,7.4910
2023-05-03T03:06:44.293Z,7.4643
2023-05-03T03:07:46.858Z,7.4732
2023-05-03T03:08:49.073Z,7.4644
2023-05-03T03:09:51.265Z,7.4460
2023-05-03T03:10:53.461Z,7.4431
2023-05-03T03:11:55.659Z,7.4388
2023-05-03T03:12:57.874Z,7.4387
2023-05-03T03:14:00.058Z,7.4245
2023-05-03T03:15:02.275Z,7.3994
2023-05-03T03:16:04.513Z,7.3787
2023-05-03T03:17:06.693Z,7.3422
2023-05-03T03:18:08.894Z,7.3315
2023-05-03T03:19:11.125Z,7.3135
2023-05-03T03:20:13.312Z,7.3029
2023-05-03T03:21:15.484Z,7.3229
2023-05-03T03:22:17.668Z,7.2894
2023-05-03T03:23:19.838Z,7.2821
2023-05-03T03:24:22.021Z,7.2984
2023-05-03T03:25:24.202Z,7.2868
2023-05-03T03:26:26.437Z,7.2641
2023-05-03T03:27:28.626Z,7.2469
2023-05-03T03:28:30.816Z,7.2101
2023-05-03T03:29:33.020Z,7.1983
2023-05-03T03:30:35.257Z,7.2026
2023-05-03T03:31:37.447Z,7.1953
2023-05-03T03:32:39.720Z,7.1756
2023-05-03T03:33:41.900Z,7.1572
2023-05-03T03:34:44.075Z,7.1275
2023-05-03T03:35:46.240Z,7.1424
2023-05-03T03:36:48.393Z,7.1254
2023-05-03T03:37:50.563Z,7.1093
2023-05-03T03:38:52.747Z,7.0882
2023-05-03T03:39:54.930Z,7.1086
2023-05-03T03:40:57.103Z,7.0791
2023-05-03T03:41:59.290Z,7.0378
2023-05-03T03:43:01.479Z,7.0449
2023-05-03T03:44:03.656Z,7.0460
2023-05-03T03:45:05.832Z,7.0216
2023-05-03T03:46:08.024Z,7.0222
2023-05-03T03:47:10.299Z,7.0502
2023-05-03T03:48:12.623Z,7.0196
2023-05-03T03:49:14.840Z,6.9841
2023-05-03T03:50:17.024Z,6.9596
2023-05-03T03:51:19.196Z,6.9388
2023-05-03T03:52:21.416Z,6.9458
2023-05-03T03:53:23.635Z,6.9197
2023-05-03T03:54:25.829Z,6.9173
2023-05-03T03:55:28.037Z,6.8884
2023-05-03T03:56:30.271Z,6.9000
2023-05-03T03:57:32.479Z,6.8986
2023-05-03T03:58:34.690Z,6.9285
2023-05-03T03:59:36.931Z,6.8843
2023-05-03T04:00:39.136Z,6.9633
2023-05-03T04:01:41.327Z,6.9618
2023-05-03T04:02:43.819Z,6.9344
2023-05-03T04:03:46.236Z,6.9153
2023-05-03T04:04:48.402Z,6.9304
2023-05-03T04:05:50.613Z,6.9467
2023-05-03T04:06:52.900Z,6.9222
2023-05-03T04:07:55.126Z,6.9255
2023-05-03T04:08:57.308Z,6.9814
2023-05-03T04:10:01.552Z,7.0301
2023-05-03T04:11:00.336Z,7.0200
2023-05-03T04:12:02.530Z,7.0122
2023-05-03T04:13:04.791Z,6.9916
2023-05-03T04:14:06.977Z,7.0116
2023-05-03T04:15:09.124Z,7.0138
2023-05-03T04:16:11.300Z,6.9933
2023-05-03T04:17:13.556Z,7.0186
2023-05-03T04:18:15.712Z,7.0147
2023-05-03T04:19:17.911Z,7.0009
2023-05-03T04:20:20.105Z,7.0059
2023-05-03T04:21:22.341Z,7.0130
2023-05-03T04:22:24.522Z,6.9907
2023-05-03T04:23:26.744Z,7.0202
2023-05-03T04:24:28.934Z,7.0243
2023-05-03T04:25:31.105Z,7.0386
2023-05-03T04:26:33.330Z,7.0574
2023-05-03T04:27:35.490Z,7.0669
2023-05-03T04:28:37.683Z,7.0568
2023-05-03T04:29:39.907Z,7.0521
2023-05-03T04:30:42.094Z,7.0450
2023-05-03T04:31:44.314Z,7.0837
2023-05-03T04:32:46.568Z,7.0769
2023-05-03T04:33:48.738Z,7.0724
2023-05-03T04:34:51.964Z,7.1391
2023-05-03T04:35:52.340Z,7.0971
2023-05-03T04:36:54.548Z,7.1094
2023-05-03T04:37:56.712Z,7.1209
2023-05-03T04:38:58.879Z,7.2117
2023-05-03T04:40:01.268Z,7.1631
2023-05-03T04:41:03.713Z,7.1746
2023-05-03T04:42:05.885Z,7.1960
2023-05-03T04:43:08.089Z,7.1749
2023-05-03T04:44:10.361Z,7.2199
2023-05-03T04:45:12.516Z,7.2181
2023-05-03T04:46:14.746Z,7.2290
2023-05-03T04:47:16.926Z,7.2579
2023-05-03T04:48:19.116Z,7.2858
2023-05-03T04:49:21.342Z,7.3238
2023-05-03T04:50:23.604Z,7.3163
2023-05-03T04:51:25.820Z,7.3213
2023-05-03T04:52:28.049Z,7.3216
2023-05-03T04:53:30.204Z,7.3939
2023-05-03T04:54:32.436Z,7.4134
2023-05-03T04:55:34.640Z,7.4519
2023-05-03T04:56:36.800Z,7.4858
2023-05-03T04:57:39.768Z,7.5137
2023-05-03T04:58:41.940Z,7.5076
2023-05-03T04:59:44.126Z,7.5276
2023-05-03T05:00:46.338Z,7.5244
2023-05-03T05:01:48.571Z,7.5466
2023-05-03T05:02:50.788Z,7.5271
2023-05-03T05:03:53.181Z,7.5072
2023-05-03T05:04:55.626Z,7.5607
2023-05-03T05:05:57.791Z,7.5249
2023-05-03T05:06:59.997Z,7.4941
2023-05-03T05:08:02.479Z,7.5265
2023-05-03T05:09:04.682Z,7.5467
2023-05-03T05:10:06.929Z,7.5357
2023-05-03T05:11:09.138Z,7.5593
2023-05-03T05:12:11.403Z,7.5530
2023-05-03T05:13:13.644Z,7.5057
2023-05-03T05:14:15.857Z,7.5243
2023-05-03T05:15:18.104Z,7.5466
2023-05-03T05:16:20.346Z,7.5054
2023-05-03T05:17:22.623Z,7.5474
2023-05-03T05:18:24.838Z,7.5015
2023-05-03T05:19:27.009Z,7.5599
2023-05-03T05:20:29.196Z,7.6382
2023-05-03T05:21:31.394Z,7.5475
2023-05-03T05:22:33.604Z,7.5582
2023-05-03T05:23:35.807Z,7.5543
2023-05-03T05:24:38.033Z,7.6430
2023-05-03T05:25:40.214Z,7.6488
2023-05-03T05:26:42.403Z,7.7090
2023-05-03T05:27:44.594Z,7.6454
2023-05-03T05:28:46.789Z,7.6094
2023-05-03T05:29:48.963Z,7.5114
2023-05-03T05:30:51.155Z,7.5978
2023-05-03T05:31:53.411Z,7.5788
2023-05-03T05:32:55.599Z,7.5609
2023-05-03T05:33:57.756Z,7.6217
2023-05-03T05:34:59.957Z,7.6143
2023-05-03T05:36:02.180Z,7.6589
2023-05-03T05:37:04.456Z,7.7560
2023-05-03T05:38:06.683Z,7.8081
2023-05-03T05:39:08.871Z,7.7227
2023-05-03T05:40:11.086Z,7.7146
2023-05-03T05:41:13.285Z,7.8312
2023-05-03T05:42:15.482Z,7.9232
2023-05-03T05:43:17.750Z,7.9278
2023-05-03T05:44:20.028Z,7.8802
2023-05-03T05:45:22.237Z,8.0382
2023-05-03T05:46:24.493Z,7.9319
2023-05-03T05:47:27.089Z,7.9371
2023-05-03T05:48:29.357Z,7.9578
2023-05-03T05:49:31.542Z,7.9518
2023-05-03T05:50:33.771Z,7.8568
2023-05-03T05:51:36.059Z,7.8287
2023-05-03T05:52:38.279Z,7.7844
2023-05-03T05:53:40.447Z,7.9145
2023-05-03T05:54:42.792Z,7.9412
2023-05-03T05:55:44.986Z,7.8928
2023-05-03T05:56:47.180Z,8.0403
2023-05-03T05:57:49.705Z,8.1000
2023-05-03T05:58:51.911Z,8.0921
2023-05-03T05:59:54.253Z,8.1182
2023-05-03T06:00:56.462Z,8.1389
2023-05-03T06:01:58.752Z,8.1881
2023-05-03T06:03:00.997Z,8.0945
2023-05-03T06:04:03.203Z,8.1909
2023-05-03T06:05:07.531Z,8.1520
2023-05-03T06:06:06.336Z,8.1644
2023-05-03T06:07:08.513Z,8.3117
2023-05-03T06:08:10.715Z,8.1504
2023-05-03T06:09:23.531Z,8.1823
2023-05-03T06:10:15.639Z,8.3191
2023-05-03T06:11:17.901Z,8.1527
2023-05-03T06:12:20.392Z,8.0855
2023-05-03T06:13:22.575Z,8.0682
2023-05-03T06:14:24.739Z,8.0250
2023-05-03T06:15:34.468Z,8.0052
2023-05-03T06:16:36.676Z,8.0728
2023-05-03T06:17:38.977Z,8.2462
2023-05-03T06:18:41.158Z,8.3161
2023-05-03T06:19:45.071Z,8.3145
2023-05-03T06:20:43.725Z,8.1512
2023-05-03T06:21:45.932Z,8.2558
2023-05-03T06:22:48.184Z,8.2753
2023-05-03T06:23:50.403Z,8.2228
2023-05-03T06:24:52.626Z,8.2693
2023-05-03T06:25:54.890Z,8.3189
2023-05-03T06:26:57.140Z,8.1796
2023-05-03T06:27:59.377Z,8.3521
2023-05-03T06:29:01.603Z,8.4226
2023-05-03T06:30:04.046Z,8.3332
2023-05-03T06:31:06.548Z,8.3001
2023-05-03T06:32:08.889Z,8.3247
2023-05-03T06:33:11.145Z,8.3452
2023-05-03T06:34:13.339Z,8.2515
2023-05-03T06:35:15.515Z,8.1939
2023-05-03T06:36:17.679Z,8.1680
2023-05-03T06:37:19.882Z,8.1581
2023-05-03T06:38:22.053Z,8.3599
2023-05-03T06:39:24.322Z,8.4075
2023-05-03T06:40:26.496Z,8.3854
2023-05-03T06:41:28.671Z,8.3728
2023-05-03T06:42:32.014Z,8.4839
2023-05-03T06:43:34.224Z,8.3177
2023-05-03T06:44:36.494Z,8.4851
2023-05-03T06:45:38.744Z,8.5288
2023-05-03T06:46:41.056Z,8.4342
2023-05-03T06:47:43.387Z,8.2537
2023-05-03T06:48:45.719Z,8.4515
2023-05-03T06:49:47.909Z,8.5685
2023-05-03T06:50:50.118Z,8.4864
2023-05-03T06:51:52.319Z,8.2712
2023-05-03T06:52:54.547Z,8.3459
2023-05-03T06:53:56.743Z,8.5241
2023-05-03T06:54:58.958Z,8.7057
2023-05-03T06:56:01.162Z,8.7162
2023-05-03T06:57:03.381Z,8.6342
2023-05-03T06:58:05.600Z,8.6328
2023-05-03T06:59:07.813Z,8.8100
2023-05-03T07:00:10.018Z,8.6254
2023-05-03T07:01:12.304Z,8.6749
2023-05-03T07:02:14.611Z,8.6879
2023-05-03T07:03:16.939Z,8.5831
2023-05-03T07:04:19.274Z,8.8426
2023-05-03T07:05:21.491Z,8.6896
2023-05-03T07:06:23.986Z,8.8475
2023-05-03T07:07:26.258Z,9.0589
2023-05-03T07:08:28.427Z,9.2284
2023-05-03T07:09:42.061Z,9.0416
2023-05-03T07:10:31.686Z,8.9161
2023-05-03T07:11:33.882Z,8.9133
2023-05-03T07:12:33.991Z,8.9810
2023-05-03T07:13:36.164Z,8.8447
2023-05-03T07:14:38.394Z,9.2045
2023-05-03T07:15:40.573Z,9.4014
2023-05-03T07:16:42.942Z,9.1895
2023-05-03T07:17:45.300Z,9.4138
2023-05-03T07:18:47.504Z,8.9491
2023-05-03T07:19:49.794Z,8.9213
2023-05-03T07:20:52.006Z,9.2147
2023-05-03T07:21:54.201Z,9.2953
2023-05-03T07:22:56.380Z,9.4007
2023-05-03T07:23:58.569Z,9.2996
2023-05-03T07:25:00.889Z,9.3194
2023-05-03T07:26:03.108Z,9.4098
2023-05-03T07:27:05.295Z,9.6308
2023-05-03T07:28:07.512Z,9.6475
2023-05-03T07:29:17.306Z,9.5297
2023-05-03T07:30:19.517Z,9.4727
2023-05-03T07:31:21.662Z,9.3779
2023-05-03T07:32:23.982Z,9.4221
2023-05-03T07:33:26.299Z,9.8237
2023-05-03T07:34:28.517Z,10.2584
2023-05-03T07:35:30.960Z,9.8635
2023-05-03T07:36:33.208Z,9.8294
2023-05-03T07:37:35.705Z,10.3694
2023-05-03T07:38:37.767Z,9.9409
2023-05-03T07:39:40.124Z,9.8008
2023-05-03T07:40:42.332Z,10.2588
2023-05-03T07:42:45.673Z,10.2433
2023-05-03T07:43:48.026Z,9.6883
2023-05-03T07:44:50.216Z,9.7469
2023-05-03T07:45:52.407Z,9.5839
2023-05-03T07:46:54.593Z,10.0616
2023-05-03T07:47:57.541Z,9.8881
2023-05-03T07:48:59.789Z,9.9178
2023-05-03T07:50:02.262Z,10.7060
2023-05-03T07:51:04.620Z,10.5934
2023-05-03T07:52:06.817Z,10.1778
2023-05-03T07:53:09.035Z,10.1429
2023-05-03T07:54:11.196Z,10.0006
2023-05-03T07:55:13.419Z,9.9351
2023-05-03T07:56:15.633Z,9.7166
2023-05-03T07:57:17.825Z,9.8468
2023-05-03T07:58:28.399Z,9.8426
2023-05-03T07:59:20.867Z,9.7369
2023-05-03T08:00:22.916Z,10.0483
2023-05-03T08:01:25.180Z,9.8577
2023-05-03T08:02:27.498Z,10.0028
2023-05-03T08:03:29.799Z,10.2697
2023-05-03T08:04:32.424Z,9.8875
2023-05-03T08:05:34.831Z,9.8473
2023-05-03T08:06:37.031Z,10.0174
2023-05-03T08:07:39.313Z,10.3914
2023-05-03T08:08:41.517Z,10.6504
2023-05-03T08:09:43.694Z,10.9987
2023-05-03T08:10:45.880Z,10.9834
2023-05-03T08:11:48.087Z,10.7703
2023-05-03T08:12:50.339Z,10.9467
2023-05-03T08:13:52.524Z,11.1828
2023-05-03T08:14:54.786Z,10.9272
2023-05-03T08:15:57.201Z,10.7953
2023-05-03T08:16:59.425Z,10.5936
2023-05-03T08:18:01.917Z,11.0648
2023-05-03T08:19:04.076Z,10.8144
2023-05-03T08:20:06.504Z,11.2008
2023-05-03T08:21:08.896Z,13.3784
2023-05-03T08:22:11.156Z,13.1142
2023-05-03T08:23:13.508Z,12.3843
2023-05-03T08:24:16.212Z,11.6854
2023-05-03T08:25:18.531Z,10.8809
2023-05-03T08:26:20.752Z,11.0304
2023-05-03T08:27:23.044Z,10.6083
2023-05-03T08:28:25.274Z,10.5735
2023-05-03T08:29:27.835Z,10.6983
2023-05-03T08:30:30.156Z,11.7834
2023-05-03T08:31:32.435Z,11.3482
2023-05-03T08:32:34.700Z,10.9036
2023-05-03T08:33:36.973Z,11.0915
2023-05-03T08:34:39.190Z,11.6209
2023-05-03T08:35:41.517Z,11.4963
2023-05-03T08:36:43.819Z,11.8796
2023-05-03T08:37:46.016Z,11.8142
2023-05-03T08:38:48.320Z,11.6793
2023-05-03T08:39:50.596Z,11.5211
2023-05-03T08:40:52.842Z,11.3881
2023-05-03T08:41:55.073Z,10.9591
2023-05-03T08:42:57.288Z,11.2187
2023-05-03T08:43:59.535Z,11.1504
2023-05-03T08:45:01.769Z,11.1289
2023-05-03T08:46:04.021Z,11.4737
2023-05-03T08:47:06.661Z,11.4142
2023-05-03T08:48:09.055Z,11.1550
2023-05-03T08:49:11.314Z,11.4804
2023-05-03T08:50:13.572Z,11.9759
2023-05-03T08:51:16.140Z,13.3987
2023-05-03T08:52:18.353Z,13.0198
2023-05-03T08:53:20.575Z,11.5068
2023-05-03T08:54:22.846Z,12.3833
2023-05-03T08:55:25.091Z,13.0731
2023-05-03T08:56:27.387Z,13.0369
2023-05-03T08:57:29.676Z,13.0954
2023-05-03T08:58:31.919Z,13.8518
2023-05-03T08:59:34.184Z,13.0518
2023-05-03T09:00:36.452Z,12.9108
2023-05-03T09:01:39.597Z,13.0991
2023-05-03T09:02:41.950Z,13.7629
2023-05-03T09:03:44.455Z,14.5084
2023-05-03T09:04:49.130Z,14.3430
2023-05-03T09:05:51.355Z,15.3637
2023-05-03T09:06:53.772Z,14.5273
2023-05-03T09:07:56.003Z,13.5594
2023-05-03T09:08:58.228Z,13.3060
2023-05-03T09:10:00.510Z,13.2749
2023-05-03T09:11:03.043Z,13.5171
2023-05-03T09:12:05.252Z,13.1576
2023-05-03T09:13:07.491Z,14.0014
2023-05-03T09:14:10.058Z,14.3692
2023-05-03T09:15:12.254Z,13.4760
2023-05-03T09:16:14.547Z,13.4526
2023-05-03T09:17:17.124Z,13.2451
2023-05-03T09:18:19.468Z,13.2991
2023-05-03T09:19:21.821Z,13.0401
2023-05-03T09:20:24.057Z,13.3084
2023-05-03T09:21:26.273Z,14.0790
2023-05-03T09:22:28.612Z,13.5074
2023-05-03T09:23:38.343Z,13.6908
2023-05-03T09:24:33.300Z,13.4054
2023-05-03T09:25:35.594Z,13.9538
2023-05-03T09:26:37.814Z,13.6982
2023-05-03T09:27:40.036Z,14.0655
2023-05-03T09:28:42.269Z,13.6663
2023-05-03T09:29:44.755Z,14.1552
2023-05-03T09:30:47.011Z,13.6051
2023-05-03T09:31:49.340Z,13.5828
2023-05-03T09:32:51.558Z,13.4207
2023-05-03T09:33:53.760Z,13.7956
2023-05-03T09:34:55.994Z,14.2989
2023-05-03T09:35:58.261Z,13.9561
2023-05-03T09:37:00.546Z,14.2607
2023-05-03T09:38:02.774Z,14.6445
2023-05-03T09:39:05.049Z,14.1712
2023-05-03T09:40:07.276Z,14.9658
2023-05-03T09:41:09.499Z,14.6933
2023-05-03T09:42:11.790Z,14.4073
2023-05-03T09:43:14.056Z,14.6379
2023-05-03T09:44:16.829Z,14.3753
2023-05-03T09:45:19.092Z,14.2302
2023-05-03T09:46:21.458Z,14.1233
2023-05-03T09:47:23.742Z,14.4258
2023-05-03T09:48:26.026Z,13.7793
2023-05-03T09:49:28.239Z,13.4925
2023-05-03T09:50:30.455Z,14.0557
2023-05-03T09:51:32.665Z,13.8168
2023-05-03T09:52:34.910Z,14.3564
2023-05-03T09:53:37.180Z,13.8063
2023-05-03T09:54:39.416Z,13.8792
2023-05-03T09:55:41.633Z,14.3179
2023-05-03T09:57:07.327Z,14.6360
2023-05-03T09:58:02.439Z,14.8209
2023-05-03T09:59:04.654Z,14.3710
2023-05-03T10:00:06.930Z,14.3429
2023-05-03T10:01:09.144Z,14.8180
2023-05-03T10:02:11.401Z,14.5953
2023-05-03T10:03:13.623Z,14.0232
2023-05-03T10:04:15.958Z,14.7290
2023-05-03T10:05:18.253Z,15.0477
2023-05-03T10:06:20.465Z,14.3613
2023-05-03T10:07:22.737Z,14.6820
2023-05-03T10:08:24.968Z,16.0797
2023-05-03T10:09:27.225Z,16.2470
2023-05-03T10:10:29.448Z,16.1466
2023-05-03T10:11:31.716Z,15.2222
2023-05-03T10:12:32.396Z,14.8747
2023-05-03T10:13:34.589Z,14.5710
2023-05-03T10:14:44.435Z,14.6797
2023-05-03T10:15:46.696Z,14.8774
2023-05-03T10:16:49.005Z,15.1675
2023-05-03T10:17:51.318Z,15.2346
2023-05-03T10:18:53.555Z,15.5938
2023-05-03T10:19:55.801Z,15.7120
2023-05-03T10:20:58.039Z,15.3425
2023-05-03T10:22:00.299Z,15.2503
2023-05-03T10:23:02.567Z,15.0471
2023-05-03T10:24:04.779Z,15.5957
2023-05-03T10:25:08.295Z,15.2971
2023-05-03T10:26:17.878Z,15.7569
2023-05-03T10:27:20.287Z,14.9547
2023-05-03T10:28:22.560Z,14.9740
2023-05-03T10:29:24.799Z,14.6847
2023-05-03T10:30:27.134Z,14.9461
2023-05-03T10:31:29.372Z,15.5778
2023-05-03T10:32:31.663Z,14.9409
2023-05-03T10:33:33.913Z,15.2805
2023-05-03T10:34:36.167Z,15.7806
2023-05-03T10:35:38.390Z,15.7236
2023-05-03T10:36:49.398Z,16.3500
2023-05-03T10:37:41.492Z,15.5029
2023-05-03T10:38:43.697Z,16.8456
2023-05-03T10:39:45.926Z,15.9828
2023-05-03T10:40:48.818Z,16.0133
2023-05-03T10:41:51.070Z,15.3227
2023-05-03T10:42:53.770Z,15.4534
2023-05-03T10:43:56.155Z,16.8662
2023-05-03T10:44:58.440Z,17.6057
2023-05-03T10:46:00.711Z,17.0217
2023-05-03T10:47:02.902Z,17.0919
2023-05-03T10:48:05.196Z,16.7003
2023-05-03T10:49:07.435Z,16.6078
2023-05-03T10:50:09.690Z,16.4135
2023-05-03T10:51:11.938Z,16.3166
2023-05-03T10:52:14.181Z,16.5696
2023-05-03T10:53:16.414Z,16.6343
2023-05-03T10:54:18.678Z,16.5468
2023-05-03T10:55:20.956Z,16.5806
2023-05-03T10:56:23.221Z,16.4721
2023-05-03T10:57:25.510Z,16.5519
2023-05-03T10:58:27.717Z,16.2382
2023-05-03T10:59:29.928Z,17.0925
2023-05-03T11:00:32.211Z,17.2405
2023-05-03T11:01:34.485Z,16.9109
2023-05-03T11:02:36.729Z,17.0668
2023-05-03T11:03:38.937Z,16.7869
2023-05-03T11:04:41.329Z,17.1781
2023-05-03T11:05:43.807Z,16.9120
2023-05-03T11:06:46.178Z,16.7916
2023-05-03T11:07:48.544Z,16.2724
2023-05-03T11:08:50.737Z,16.4710
2023-05-03T11:09:52.953Z,16.1868
2023-05-03T11:10:55.268Z,15.9248
2023-05-03T11:11:57.559Z,16.4315
2023-05-03T11:12:59.778Z,16.5844
2023-05-03T11:14:02.017Z,16.8238
2023-05-03T11:15:04.485Z,16.4149
2023-05-03T11:16:07.031Z,16.5633
2023-05-03T11:17:09.240Z,16.7713
2023-05-03T11:18:11.533Z,16.9856
2023-05-03T11:19:13.856Z,16.9574
2023-05-03T11:20:16.097Z,17.7164
2023-05-03T11:21:18.328Z,17.8055
2023-05-03T11:22:20.568Z,16.8104
2023-05-03T11:23:22.809Z,17.0256
2023-05-03T11:24:25.032Z,17.5207
2023-05-03T11:25:27.280Z,17.7235
2023-05-03T11:26:37.332Z,17.2092
2023-05-03T11:27:32.284Z,17.1857
2023-05-03T11:28:34.614Z,16.9774
2023-05-03T11:29:37.274Z,17.1027
2023-05-03T11:30:39.493Z,16.9226
2023-05-03T11:31:41.845Z,16.6555
2023-05-03T11:32:44.086Z,17.1756
2023-05-03T11:33:47.977Z,18.4615
2023-05-03T11:34:46.700Z,18.5039
2023-05-03T11:35:48.916Z,17.9662
2023-05-03T11:36:51.174Z,17.1547
2023-05-03T11:37:53.445Z,17.2653
2023-05-03T11:38:55.670Z,16.8478
2023-05-03T11:39:57.997Z,16.9714
2023-05-03T11:41:00.251Z,17.2359
2023-05-03T11:42:02.498Z,17.6552
2023-05-03T11:43:04.764Z,18.2863
2023-05-03T11:44:15.863Z,17.8902
2023-05-03T11:45:08.332Z,18.1170
2023-05-03T11:46:18.134Z,18.2730
2023-05-03T11:47:20.459Z,18.3459
2023-05-03T11:48:22.798Z,18.2128
2023-05-03T11:49:25.920Z,18.0596
2023-05-03T11:50:28.133Z,18.0187
2023-05-03T11:51:30.341Z,17.9054
2023-05-03T11:52:32.653Z,18.1446
2023-05-03T11:53:34.910Z,17.9795
2023-05-03T11:54:37.223Z,17.8547
2023-05-03T11:55:39.598Z,18.1498
2023-05-03T11:56:41.840Z,17.6756
2023-05-03T11:57:44.094Z,17.4987
2023-05-03T11:58:46.374Z,17.9023
2023-05-03T11:59:48.625Z,17.8952
2023-05-03T12:00:50.857Z,17.9269
2023-05-03T12:01:53.136Z,17.8734
2023-05-03T12:02:55.495Z,18.0796
2023-05-03T12:03:57.891Z,18.4189
2023-05-03T12:05:00.373Z,19.1636
2023-05-03T12:06:03.464Z,19.0587
2023-05-03T12:07:04.417Z,19.5928
2023-05-03T12:08:03.859Z,20.3755
2023-05-03T12:09:08.042Z,19.6152
2023-05-03T12:10:16.832Z,20.0643
2023-05-03T12:11:11.500Z,19.2551
2023-05-03T12:12:14.484Z,18.8619
2023-05-03T12:13:16.875Z,18.3931
2023-05-03T12:14:16.268Z,18.7913
2023-05-03T12:15:18.900Z,18.3027
2023-05-03T12:16:21.578Z,18.0270
2023-05-03T12:17:24.291Z,18.9621
2023-05-03T12:18:26.922Z,19.2990
2023-05-03T12:21:32.018Z,18.8295
2023-05-03T12:22:34.857Z,20.3524
2023-05-03T12:23:37.314Z,19.0646
2023-05-03T12:24:39.766Z,19.4055
2023-05-03T12:25:44.797Z,19.5060
2023-05-03T12:26:43.903Z,18.9672
2023-05-03T12:27:52.298Z,19.6711
2023-05-03T12:28:47.881Z,19.7551
2023-05-03T12:29:51.789Z,18.2885
2023-05-03T12:30:52.984Z,18.2551
2023-05-03T12:31:52.219Z,17.3579
2023-05-03T12:32:54.554Z,17.8423
2023-05-03T12:34:19.959Z,19.0144
2023-05-03T12:34:57.904Z,19.9844
2023-05-03T12:36:03.987Z,19.5067
2023-05-03T12:37:04.940Z,20.4162
2023-05-03T12:38:04.415Z,20.8209
2023-05-03T12:40:31.849Z,18.8009
2023-05-03T12:41:10.332Z,18.7080
2023-05-03T12:43:14.793Z,19.6609
2023-05-03T12:44:17.459Z,19.5118
2023-05-03T12:45:21.265Z,19.8408
2023-05-03T12:46:33.783Z,19.8152
2023-05-03T12:47:28.330Z,19.6268
2023-05-03T12:48:22.068Z,20.0440
2023-05-03T12:49:24.475Z,20.5016
2023-05-03T12:50:30.923Z,19.7057
2023-05-03T12:51:33.197Z,18.5947
2023-05-03T12:53:32.678Z,19.5328